Time;durP1;ratioP1;P1;durP2;ratioP2;P2;SDS_P1;SDS_P2;PMS_P1;PMS_P2;Temp;Humidity;BMP_temperature;BMP_pressure;BME280_temperature;BME280_humidity;BME280_pressure;Samples;Min_cycle;Max_cycle;Signal;HPM_P1;HPM_P2
2022/10/05 00:01:19;;;;;;;5.20;1.50;;;;;;;;;;3377782;42;20560;-64
2022/10/05 00:03:52;;;;;;;5.82;1.70;;;;;;;;;;3383099;42;20591;-63
2022/10/05 00:06:27;;;;;;;6.47;1.95;;;;;;;;;;3383304;42;20501;-63
2022/10/05 00:08:59;;;;;;;5.03;1.67;;;;;;;;;;3376662;42;20548;-62
2022/10/05 00:11:30;;;;;;;6.77;1.80;;;;;;;;;;3376590;42;20572;-64
2022/10/05 00:14:06;;;;;;;6.70;1.88;;;;;;;;;;3376409;42;20086;-62
2022/10/05 00:16:37;;;;;;;6.72;1.70;;;;;;;;;;3367851;42;20084;-63
2022/10/05 00:19:17;;;;;;;8.82;1.92;;;;;;;;;;3383588;42;20098;-63
2022/10/05 00:21:48;;;;;;;6.00;2.00;;;;;;;;;;3376763;42;20075;-63
2022/10/05 00:24:19;;;;;;;6.07;1.63;;;;;;;;;;3383362;42;20099;-62
2022/10/05 00:26:51;;;;;;;6.03;1.77;;;;;;;;;;3375641;42;20091;-63
2022/10/05 00:29:22;;;;;;;6.70;1.70;;;;;;;;;;3389040;42;20082;-70
2022/10/05 00:31:53;;;;;;;5.32;1.80;;;;;;;;;;3375884;42;20103;-63
2022/10/05 00:34:24;;;;;;;5.40;2.00;;;;;;;;;;3383499;42;20094;-63
2022/10/05 00:36:56;;;;;;;6.03;1.97;;;;;;;;;;3383658;42;20090;-62
2022/10/05 00:39:28;;;;;;;6.72;1.92;;;;;;;;;;3372806;42;20094;-63
2022/10/05 00:42:24;;;;;;;7.47;2.00;;;;;;;;;;3375856;42;20095;-63
2022/10/05 00:45:04;;;;;;;6.20;1.90;;;;;;;;;;3383709;42;20087;-63
2022/10/05 00:48:00;;;;;;;7.68;2.00;;;;;;;;;;3381397;42;20105;-63
2022/10/05 00:50:40;;;;;;;6.03;2.13;;;;;;;;;;3381823;42;20091;-62
2022/10/05 00:53:25;;;;;;;10.40;2.10;;;;;;;;;;3383329;42;20166;-62
2022/10/05 00:56:09;;;;;;;6.80;2.30;;;;;;;;;;3374170;42;20095;-62
2022/10/05 00:59:01;;;;;;;9.15;2.55;;;;;;;;;;3376342;42;20083;-62
2022/10/05 01:01:46;;;;;;;6.47;2.03;;;;;;;;;;3382337;42;20083;-62
2022/10/05 01:04:42;;;;;;;7.13;2.27;;;;;;;;;;3373935;42;20579;-61
2022/10/05 01:07:34;;;;;;;7.47;2.35;;;;;;;;;;3376960;42;20082;-62
2022/10/05 01:10:24;;;;;;;6.53;1.73;;;;;;;;;;3380110;42;20086;-62
2022/10/05 01:13:34;;;;;;;6.43;2.10;;;;;;;;;;3381720;42;20256;-63
2022/10/05 01:16:13;;;;;;;6.30;2.40;;;;;;;;;;3382475;42;20078;-63
2022/10/05 01:18:50;;;;;;;7.07;2.00;;;;;;;;;;3375908;42;20151;-62
2022/10/05 01:21:25;;;;;;;8.45;2.22;;;;;;;;;;3383938;42;20142;-63
2022/10/05 01:24:11;;;;;;;6.35;2.10;;;;;;;;;;3373363;42;20090;-63
2022/10/05 01:26:57;;;;;;;5.53;2.00;;;;;;;;;;3380795;42;20091;-63
2022/10/05 01:29:31;;;;;;;7.75;2.20;;;;;;;;;;3384960;42;20111;-63
2022/10/05 01:32:17;;;;;;;7.53;2.27;;;;;;;;;;3385746;42;20107;-63
2022/10/05 01:35:17;;;;;;;5.78;2.17;;;;;;;;;;3390209;42;20094;-63
2022/10/05 01:38:04;;;;;;;7.80;2.30;;;;;;;;;;3382893;42;20175;-61
2022/10/05 01:40:48;;;;;;;6.60;2.20;;;;;;;;;;3391791;42;20557;-63
2022/10/05 01:43:47;;;;;;;7.00;2.28;;;;;;;;;;3378027;42;20083;-63
2022/10/05 01:46:43;;;;;;;5.97;2.03;;;;;;;;;;3384801;42;20091;-64
2022/10/05 01:49:33;;;;;;;6.35;2.05;;;;;;;;;;3382088;42;20562;-63
2022/10/05 01:52:13;;;;;;;6.15;2.03;;;;;;;;;;3384290;42;20090;-62
2022/10/05 01:54:56;;;;;;;8.82;2.13;;;;;;;;;;3377786;42;20126;-63
2022/10/05 01:57:36;;;;;;;8.55;2.35;;;;;;;;;;3384613;42;20485;-62
2022/10/05 02:00:15;;;;;;;6.33;2.30;;;;;;;;;;3383179;42;20093;-63
2022/10/05 02:02:55;;;;;;;8.73;2.40;;;;;;;;;;3382441;42;20554;-66
2022/10/05 02:05:48;;;;;;;6.60;2.28;;;;;;;;;;3385522;42;20099;-62
2022/10/05 02:08:24;;;;;;;6.03;2.33;;;;;;;;;;3384306;42;20258;-62
2022/10/05 02:11:05;;;;;;;8.20;2.17;;;;;;;;;;3377478;42;20083;-63
2022/10/05 02:13:43;;;;;;;8.90;2.73;;;;;;;;;;3384179;42;20141;-63
2022/10/05 02:16:15;;;;;;;7.10;2.40;;;;;;;;;;3377016;42;20078;-63
2022/10/05 02:19:10;;;;;;;6.50;2.28;;;;;;;;;;3384262;42;20102;-64
2022/10/05 02:21:43;;;;;;;6.30;2.20;;;;;;;;;;3372843;42;20110;-63
2022/10/05 02:24:21;;;;;;;7.60;2.22;;;;;;;;;;3384065;42;20582;-61
2022/10/05 02:26:52;;;;;;;7.00;2.20;;;;;;;;;;3376959;42;20102;-63
2022/10/05 02:29:25;;;;;;;7.57;2.22;;;;;;;;;;3373951;42;20086;-63
2022/10/05 02:32:04;;;;;;;6.63;2.22;;;;;;;;;;3376912;42;20553;-62
2022/10/05 02:34:37;;;;;;;6.53;2.60;;;;;;;;;;3377440;42;20102;-64
2022/10/05 02:37:46;;;;;;;5.72;2.10;;;;;;;;;;3384130;42;20109;-62
2022/10/05 02:40:42;;;;;;;6.20;2.13;;;;;;;;;;3388904;42;20102;-63
2022/10/05 02:44:00;;;;;;;8.57;2.20;;;;;;;;;;3383699;42;20587;-62
2022/10/05 02:46:42;;;;;;;5.90;1.80;;;;;;;;;;3367247;42;20097;-64
2022/10/05 02:49:22;;;;;;;6.55;1.90;;;;;;;;;;3372681;42;20600;-62
2022/10/05 02:52:12;;;;;;;7.03;2.25;;;;;;;;;;3376677;42;20087;-61
2022/10/05 02:54:44;;;;;;;5.67;1.80;;;;;;;;;;3377502;42;20082;-64
2022/10/05 02:57:17;;;;;;;5.65;1.90;;;;;;;;;;3383740;42;20105;-62
2022/10/05 03:00:08;;;;;;;6.40;2.13;;;;;;;;;;3383258;42;20169;-62
2022/10/05 03:02:46;;;;;;;5.30;2.00;;;;;;;;;;3379735;42;20117;-62
2022/10/05 03:05:47;;;;;;;7.82;2.00;;;;;;;;;;3376406;42;20087;-62
2022/10/05 03:08:23;;;;;;;6.70;1.90;;;;;;;;;;3381145;42;20091;-61
2022/10/05 03:11:32;;;;;;;11.38;2.08;;;;;;;;;;3384740;42;22019;-63
2022/10/05 03:14:50;;;;;;;6.38;1.90;;;;;;;;;;3382256;42;20616;-62
2022/10/05 03:17:51;;;;;;;5.80;1.75;;;;;;;;;;3348732;42;20284;-62
2022/10/05 03:20:52;;;;;;;5.78;1.88;;;;;;;;;;3343652;42;20598;-63
2022/10/05 03:23:42;;;;;;;5.33;1.70;;;;;;;;;;3380626;42;20091;-61
2022/10/05 03:26:42;;;;;;;5.90;1.60;;;;;;;;;;3373374;42;20154;-61
2022/10/05 03:29:22;;;;;;;4.63;1.70;;;;;;;;;;3364635;42;20736;-62
2022/10/05 03:31:57;;;;;;;6.70;1.90;;;;;;;;;;3382128;42;20549;-65
2022/10/05 03:34:42;;;;;;;5.22;1.50;;;;;;;;;;3382090;42;20763;-64
2022/10/05 03:37:19;;;;;;;6.90;2.00;;;;;;;;;;3372765;42;20087;-62
2022/10/05 03:39:56;;;;;;;8.38;1.83;;;;;;;;;;3376455;42;20160;-61
2022/10/05 03:42:37;;;;;;;7.40;1.63;;;;;;;;;;3374494;42;20558;-64
2022/10/05 03:45:27;;;;;;;6.05;1.52;;;;;;;;;;3383367;42;20201;-63
2022/10/05 03:48:08;;;;;;;5.80;1.60;;;;;;;;;;3377187;42;20159;-64
2022/10/05 03:50:43;;;;;;;6.03;1.90;;;;;;;;;;3375643;42;20558;-64
2022/10/05 03:53:15;;;;;;;6.22;2.20;;;;;;;;;;3383712;42;20105;-63
2022/10/05 03:55:51;;;;;;;6.13;1.65;;;;;;;;;;3366913;42;20087;-64
2022/10/05 03:58:33;;;;;;;5.28;1.50;;;;;;;;;;3376242;42;20164;-63
2022/10/05 04:01:09;;;;;;;6.13;1.63;;;;;;;;;;3376162;42;20102;-65
2022/10/05 04:03:43;;;;;;;8.30;2.07;;;;;;;;;;3380795;42;20560;-63
2022/10/05 04:06:21;;;;;;;7.25;1.65;;;;;;;;;;3375631;42;20086;-64
2022/10/05 04:08:59;;;;;;;6.55;1.70;;;;;;;;;;3382202;42;20095;-64
2022/10/05 04:12:07;;;;;;;5.20;1.50;;;;;;;;;;3377478;42;20106;-59
2022/10/05 04:14:47;;;;;;;7.78;1.70;;;;;;;;;;3371929;42;20144;-63
2022/10/05 04:17:29;;;;;;;6.20;1.83;;;;;;;;;;3373998;42;20516;-62
2022/10/05 04:20:17;;;;;;;8.65;1.95;;;;;;;;;;3380376;42;20184;-61
2022/10/05 04:23:08;;;;;;;5.95;1.60;;;;;;;;;;3380311;42;20147;-64
2022/10/05 04:25:53;;;;;;;5.22;1.40;;;;;;;;;;3380913;42;20091;-62
2022/10/05 04:28:52;;;;;;;4.90;1.50;;;;;;;;;;3376717;42;20121;-62
2022/10/05 04:31:41;;;;;;;5.73;1.57;;;;;;;;;;3369388;42;20101;-63
2022/10/05 04:34:43;;;;;;;4.90;1.45;;;;;;;;;;3372199;42;20091;-63
2022/10/05 04:37:32;;;;;;;4.93;1.42;;;;;;;;;;3389101;42;20087;-63
2022/10/05 04:40:03;;;;;;;6.43;1.70;;;;;;;;;;3367944;42;20101;-63
2022/10/05 04:43:00;;;;;;;5.43;1.60;;;;;;;;;;3378641;42;20512;-64
2022/10/05 04:45:40;;;;;;;5.93;1.80;;;;;;;;;;3389498;42;20112;-66
2022/10/05 04:48:30;;;;;;;5.30;1.70;;;;;;;;;;3385013;42;20090;-64
2022/10/05 04:51:37;;;;;;;5.70;1.45;;;;;;;;;;3381260;42;20102;-65
2022/10/05 04:54:33;;;;;;;7.32;1.30;;;;;;;;;;3369709;42;20491;-64
2022/10/05 04:57:09;;;;;;;6.78;1.35;;;;;;;;;;3380214;42;20630;-65
2022/10/05 04:59:52;;;;;;;4.60;1.33;;;;;;;;;;3375852;42;20209;-64
2022/10/05 05:02:39;;;;;;;5.60;1.25;;;;;;;;;;3381027;42;20108;-65
2022/10/05 05:06:03;;;;;;;5.75;1.50;;;;;;;;;;3382027;42;20532;-65
2022/10/05 05:08:34;;;;;;;5.68;1.70;;;;;;;;;;3367098;42;20103;-64
2022/10/05 05:11:09;;;;;;;6.68;1.70;;;;;;;;;;3381853;42;20121;-64
2022/10/05 05:14:32;;;;;;;5.20;1.40;;;;;;;;;;3380105;42;20188;-65
2022/10/05 05:17:31;;;;;;;6.03;1.40;;;;;;;;;;3376103;42;20501;-63
2022/10/05 05:20:26;;;;;;;4.85;1.40;;;;;;;;;;3380850;42;20091;-63
2022/10/05 05:23:04;;;;;;;8.38;1.55;;;;;;;;;;3382743;42;20095;-63
2022/10/05 05:25:52;;;;;;;5.40;1.67;;;;;;;;;;3382447;42;20091;-64
2022/10/05 05:28:53;;;;;;;8.83;1.97;;;;;;;;;;3375401;42;20496;-64
2022/10/05 05:31:45;;;;;;;4.78;1.45;;;;;;;;;;3373216;42;20696;-64
2022/10/05 05:34:22;;;;;;;5.35;1.52;;;;;;;;;;3372343;42;20079;-66
2022/10/05 05:37:05;;;;;;;5.28;1.42;;;;;;;;;;3370750;42;20090;-64
2022/10/05 05:39:49;;;;;;;7.05;1.85;;;;;;;;;;3383546;42;20146;-65
2022/10/05 05:42:35;;;;;;;5.13;1.53;;;;;;;;;;3370757;42;20142;-66
2022/10/05 05:45:16;;;;;;;8.73;1.85;;;;;;;;;;3373014;42;20141;-65
2022/10/05 05:47:52;;;;;;;6.82;1.40;;;;;;;;;;3376085;42;20075;-64
2022/10/05 05:50:40;;;;;;;6.28;1.30;;;;;;;;;;3375243;42;20146;-65
2022/10/05 05:53:41;;;;;;;11.27;2.10;;;;;;;;;;3375169;42;20099;-64
2022/10/05 05:56:30;;;;;;;4.90;1.37;;;;;;;;;;3382643;42;20078;-67
2022/10/05 05:59:25;;;;;;;5.32;1.60;;;;;;;;;;3374320;42;20121;-64
2022/10/05 06:02:24;;;;;;;4.90;1.60;;;;;;;;;;3377096;42;20095;-66
2022/10/05 06:05:02;;;;;;;6.53;1.40;;;;;;;;;;3377939;42;20146;-65
2022/10/05 06:07:33;;;;;;;5.93;1.40;;;;;;;;;;3371305;42;20147;-66
2022/10/05 06:10:25;;;;;;;6.17;1.63;;;;;;;;;;3371876;42;20107;-66
2022/10/05 06:12:56;;;;;;;7.30;1.88;;;;;;;;;;3378760;42;20099;-65
2022/10/05 06:15:42;;;;;;;5.38;1.48;;;;;;;;;;3368900;42;20103;-64
2022/10/05 06:18:16;;;;;;;6.32;1.65;;;;;;;;;;3374048;42;20083;-64
2022/10/05 06:20:52;;;;;;;5.38;1.30;;;;;;;;;;3369171;42;20142;-67
2022/10/05 06:23:29;;;;;;;6.60;1.50;;;;;;;;;;3376001;42;20094;-64
2022/10/05 06:26:21;;;;;;;5.57;1.50;;;;;;;;;;3378977;42;20115;-63
2022/10/05 06:28:59;;;;;;;5.03;1.55;;;;;;;;;;3383492;42;20125;-64
2022/10/05 06:31:51;;;;;;;5.75;1.55;;;;;;;;;;3381693;42;20111;-63
2022/10/05 06:34:50;;;;;;;5.32;1.77;;;;;;;;;;3382112;42;20108;-66
2022/10/05 06:37:36;;;;;;;7.80;1.50;;;;;;;;;;3384626;42;20143;-65
2022/10/05 06:40:28;;;;;;;6.25;1.40;;;;;;;;;;3382347;42;20094;-65
2022/10/05 06:43:21;;;;;;;5.90;1.50;;;;;;;;;;3376656;42;20553;-65
2022/10/05 06:46:22;;;;;;;7.22;1.75;;;;;;;;;;3372708;42;20183;-65
2022/10/05 06:49:03;;;;;;;6.25;1.60;;;;;;;;;;3376532;42;20110;-64
2022/10/05 06:52:08;;;;;;;5.07;1.77;;;;;;;;;;3374951;42;20511;-63
2022/10/05 06:54:52;;;;;;;6.22;1.52;;;;;;;;;;3389985;42;20094;-64
2022/10/05 06:57:41;;;;;;;5.95;1.60;;;;;;;;;;3383917;42;20570;-64
2022/10/05 07:00:21;;;;;;;8.93;1.60;;;;;;;;;;3388841;42;20126;-67
2022/10/05 07:03:24;;;;;;;7.82;1.83;;;;;;;;;;3381952;42;20083;-65
2022/10/05 07:06:35;;;;;;;6.93;1.70;;;;;;;;;;3378454;42;20102;-64
2022/10/05 07:09:25;;;;;;;8.15;1.88;;;;;;;;;;3349719;42;20087;-66
2022/10/05 07:12:06;;;;;;;13.75;1.95;;;;;;;;;;3355625;42;20102;-65
2022/10/05 07:15:07;;;;;;;7.88;2.05;;;;;;;;;;3374237;42;20653;-65
2022/10/05 07:17:50;;;;;;;8.85;1.83;;;;;;;;;;3380877;42;20098;-63
2022/10/05 07:20:31;;;;;;;8.33;1.73;;;;;;;;;;3376876;42;20193;-64
2022/10/05 07:23:06;;;;;;;6.25;1.70;;;;;;;;;;3382910;42;20083;-64
2022/10/05 07:25:40;;;;;;;6.40;1.60;;;;;;;;;;3377236;42;20090;-63
2022/10/05 07:28:17;;;;;;;7.30;1.67;;;;;;;;;;3389165;42;20598;-63
2022/10/05 07:31:10;;;;;;;7.95;1.63;;;;;;;;;;3374751;42;20140;-64
2022/10/05 07:33:57;;;;;;;4.30;1.20;;;;;;;;;;3376146;42;20105;-63
2022/10/05 07:39:43;;;;;;;5.47;1.50;;;;;;;;;;3390601;42;20084;-64
2022/10/05 07:42:33;;;;;;;7.15;1.92;;;;;;;;;;3375602;42;20129;-64
2022/10/05 07:45:15;;;;;;;8.80;2.17;;;;;;;;;;3381834;42;20083;-65
2022/10/05 07:47:56;;;;;;;10.50;1.80;;;;;;;;;;3375955;42;20110;-64
2022/10/05 07:50:27;;;;;;;6.28;1.80;;;;;;;;;;3376522;42;20587;-64
2022/10/05 07:53:05;;;;;;;8.93;1.60;;;;;;;;;;3383857;42;20118;-65
2022/10/05 07:55:46;;;;;;;7.68;2.00;;;;;;;;;;3375861;42;20087;-65
2022/10/05 07:58:30;;;;;;;7.22;1.40;;;;;;;;;;3383105;42;20097;-65
2022/10/05 08:01:13;;;;;;;9.00;1.83;;;;;;;;;;3376090;42;20087;-65
2022/10/05 08:04:14;;;;;;;8.40;1.80;;;;;;;;;;3382852;42;20738;-64
2022/10/05 08:07:15;;;;;;;9.13;1.70;;;;;;;;;;3368767;42;20176;-63
2022/10/05 08:09:56;;;;;;;10.85;1.90;;;;;;;;;;3370731;42;20098;-64
2022/10/05 08:12:33;;;;;;;6.72;1.63;;;;;;;;;;3373239;42;20087;-65
2022/10/05 08:15:14;;;;;;;8.50;1.77;;;;;;;;;;3373911;42;20090;-63
2022/10/05 08:17:52;;;;;;;9.63;1.90;;;;;;;;;;3372337;42;20099;-64
2022/10/05 08:20:35;;;;;;;6.93;1.80;;;;;;;;;;3374808;42;20166;-64
2022/10/05 08:23:18;;;;;;;7.78;1.80;;;;;;;;;;3383640;42;20159;-66
2022/10/05 08:26:08;;;;;;;9.25;2.00;;;;;;;;;;3380598;42;20095;-64
2022/10/05 08:28:58;;;;;;;9.50;1.83;;;;;;;;;;3384223;42;20086;-64
2022/10/05 08:31:36;;;;;;;7.72;1.73;;;;;;;;;;3378621;42;20109;-64
2022/10/05 08:34:22;;;;;;;10.02;2.10;;;;;;;;;;3375805;42;20553;-64
2022/10/05 08:37:03;;;;;;;8.88;1.98;;;;;;;;;;3374038;42;20137;-67
2022/10/05 08:39:39;;;;;;;5.95;1.90;;;;;;;;;;3375577;42;20548;-65
2022/10/05 08:42:28;;;;;;;10.03;1.77;;;;;;;;;;3375999;42;20611;-64
2022/10/05 08:45:21;;;;;;;8.43;2.00;;;;;;;;;;3373216;42;20083;-65
2022/10/05 08:48:20;;;;;;;8.52;2.08;;;;;;;;;;3378304;42;20556;-65
2022/10/05 08:51:14;;;;;;;12.05;2.00;;;;;;;;;;3377534;42;20083;-63
2022/10/05 08:54:00;;;;;;;8.15;1.98;;;;;;;;;;3388143;42;20109;-65
2022/10/05 08:56:34;;;;;;;10.10;1.93;;;;;;;;;;3372981;42;20499;-63
2022/10/05 08:59:35;;;;;;;7.43;2.03;;;;;;;;;;3380425;42;20553;-64
2022/10/05 09:02:18;;;;;;;6.80;1.80;;;;;;;;;;3379579;42;20146;-65
2022/10/05 09:05:41;;;;;;;9.35;2.15;;;;;;;;;;3373253;42;20094;-63
2022/10/05 09:08:25;;;;;;;6.72;1.90;;;;;;;;;;3366017;42;20490;-64
2022/10/05 09:11:04;;;;;;;11.83;2.07;;;;;;;;;;3370216;42;20106;-62
2022/10/05 09:14:00;;;;;;;8.68;1.98;;;;;;;;;;3371541;42;20191;-68
2022/10/05 09:16:49;;;;;;;8.63;2.20;;;;;;;;;;3385340;42;20152;-66
2022/10/05 09:19:42;;;;;;;8.13;1.92;;;;;;;;;;3364954;42;20079;-64
2022/10/05 09:22:14;;;;;;;8.93;1.80;;;;;;;;;;3381189;42;20098;-64
2022/10/05 09:25:27;;;;;;;6.00;1.70;;;;;;;;;;3379712;42;20646;-66
2022/10/05 09:28:17;;;;;;;8.70;2.50;;;;;;;;;;3353646;42;20190;-65
2022/10/05 09:31:05;;;;;;;10.88;1.98;;;;;;;;;;3377748;42;20091;-65
2022/10/05 09:33:55;;;;;;;13.48;2.65;;;;;;;;;;3372266;42;20666;-65
2022/10/05 09:36:54;;;;;;;8.98;2.25;;;;;;;;;;3377425;42;20099;-65
2022/10/05 09:40:03;;;;;;;6.17;1.83;;;;;;;;;;3386582;42;20104;-64
2022/10/05 09:42:37;;;;;;;7.07;1.85;;;;;;;;;;3388273;42;20102;-64
2022/10/05 09:45:26;;;;;;;9.95;2.08;;;;;;;;;;3381773;42;20146;-64
2022/10/05 09:48:20;;;;;;;8.05;2.20;;;;;;;;;;3382166;42;20477;-66
2022/10/05 09:51:01;;;;;;;12.70;2.10;;;;;;;;;;3383616;42;20090;-64
2022/10/05 09:53:58;;;;;;;7.77;1.90;;;;;;;;;;3376556;42;20099;-64
2022/10/05 09:56:38;;;;;;;8.93;2.28;;;;;;;;;;3383276;42;20146;-66
2022/10/05 09:59:43;;;;;;;7.25;1.90;;;;;;;;;;3383244;42;20560;-67
2022/10/05 10:02:15;;;;;;;13.80;1.77;;;;;;;;;;3375417;42;20111;-66
2022/10/05 10:05:04;;;;;;;12.30;2.10;;;;;;;;;;3382251;42;20091;-68
2022/10/05 10:07:44;;;;;;;9.70;2.20;;;;;;;;;;3377824;42;20088;-67
2022/10/05 10:10:15;;;;;;;8.95;2.00;;;;;;;;;;3383622;42;20124;-66
2022/10/05 10:13:28;;;;;;;9.77;2.25;;;;;;;;;;3383829;42;20101;-65
2022/10/05 10:16:13;;;;;;;10.95;2.15;;;;;;;;;;3376823;42;20138;-65
2022/10/05 10:18:53;;;;;;;12.75;2.25;;;;;;;;;;3376868;42;20500;-65
2022/10/05 10:21:44;;;;;;;9.47;1.87;;;;;;;;;;3381608;42;20103;-63
2022/10/05 10:24:19;;;;;;;8.52;1.65;;;;;;;;;;3384374;42;20142;-64
2022/10/05 10:27:19;;;;;;;12.57;2.38;;;;;;;;;;3376721;42;20649;-64
2022/10/05 10:30:17;;;;;;;9.23;2.08;;;;;;;;;;3383226;42;20103;-68
2022/10/05 10:32:56;;;;;;;10.55;2.10;;;;;;;;;;3381784;42;20573;-64
2022/10/05 10:35:31;;;;;;;10.37;2.00;;;;;;;;;;3371922;42;20099;-64
2022/10/05 10:38:36;;;;;;;10.32;1.98;;;;;;;;;;3372727;42;20095;-65
2022/10/05 10:41:26;;;;;;;9.32;2.35;;;;;;;;;;3388221;42;20164;-64
2022/10/05 10:44:09;;;;;;;9.00;2.05;;;;;;;;;;3377248;42;20087;-65
2022/10/05 10:47:12;;;;;;;11.73;2.33;;;;;;;;;;3382329;42;20087;-64
2022/10/05 10:50:04;;;;;;;8.97;2.60;;;;;;;;;;3381965;42;20094;-66
2022/10/05 10:53:03;;;;;;;10.73;2.42;;;;;;;;;;3388957;42;20168;-66
2022/10/05 10:55:46;;;;;;;9.38;2.10;;;;;;;;;;3383843;42;20083;-64
2022/10/05 10:58:57;;;;;;;9.30;2.30;;;;;;;;;;3383570;42;20082;-64
2022/10/05 11:01:57;;;;;;;9.43;2.78;;;;;;;;;;3376983;42;20114;-65
2022/10/05 11:04:53;;;;;;;7.20;2.03;;;;;;;;;;3373667;42;20201;-64
2022/10/05 11:08:05;;;;;;;8.02;2.40;;;;;;;;;;3382884;42;20504;-65
2022/10/05 11:10:57;;;;;;;12.20;2.60;;;;;;;;;;3343637;42;20636;-64
2022/10/05 11:13:43;;;;;;;14.18;2.50;;;;;;;;;;3354947;42;20107;-67
2022/10/05 11:16:39;;;;;;;9.23;2.40;;;;;;;;;;3368866;42;20121;-65
2022/10/05 11:19:23;;;;;;;9.63;2.63;;;;;;;;;;3381715;42;20095;-64
2022/10/05 11:21:54;;;;;;;12.00;2.70;;;;;;;;;;3383176;42;20094;-65
2022/10/05 11:24:25;;;;;;;8.32;2.25;;;;;;;;;;3390466;42;20117;-65
2022/10/05 11:27:34;;;;;;;12.27;2.50;;;;;;;;;;3383246;42;20153;-66
2022/10/05 11:30:31;;;;;;;9.30;2.47;;;;;;;;;;3376460;42;20198;-66
2022/10/05 11:33:36;;;;;;;10.43;2.30;;;;;;;;;;3383083;42;20109;-69
2022/10/05 11:36:07;;;;;;;8.93;3.28;;;;;;;;;;3382588;42;20079;-63
2022/10/05 11:38:47;;;;;;;9.40;2.53;;;;;;;;;;3380962;42;20086;-65
2022/10/05 11:41:37;;;;;;;9.80;2.42;;;;;;;;;;3384180;42;20091;-64
2022/10/05 11:44:32;;;;;;;10.90;2.60;;;;;;;;;;3382527;42;20083;-65
2022/10/05 11:47:16;;;;;;;13.53;3.23;;;;;;;;;;3376712;42;20576;-66
2022/10/05 11:49:53;;;;;;;6.35;2.00;;;;;;;;;;3375387;42;20183;-64
2022/10/05 11:52:44;;;;;;;7.03;1.98;;;;;;;;;;3383623;42;20157;-64
2022/10/05 11:55:18;;;;;;;9.07;2.17;;;;;;;;;;3374022;42;20079;-66
2022/10/05 11:57:53;;;;;;;8.45;2.50;;;;;;;;;;3382869;42;20473;-66
2022/10/05 12:00:31;;;;;;;12.07;2.43;;;;;;;;;;3377383;42;20169;-66
2022/10/05 12:03:17;;;;;;;11.80;2.40;;;;;;;;;;3381548;42;20559;-64
2022/10/05 12:06:00;;;;;;;14.18;2.42;;;;;;;;;;3376392;42;20555;-65
2022/10/05 12:08:46;;;;;;;12.20;2.58;;;;;;;;;;3381290;42;20142;-65
2022/10/05 12:11:45;;;;;;;10.75;2.60;;;;;;;;;;3383066;42;20192;-66
2022/10/05 12:14:43;;;;;;;11.60;2.33;;;;;;;;;;3380344;42;20082;-66
2022/10/05 12:17:47;;;;;;;9.50;2.20;;;;;;;;;;3373738;42;20095;-67
2022/10/05 12:20:32;;;;;;;9.15;2.20;;;;;;;;;;3385081;42;20103;-66
2022/10/05 12:23:34;;;;;;;9.18;2.30;;;;;;;;;;3382267;42;20099;-65
2022/10/05 12:26:06;;;;;;;16.02;2.60;;;;;;;;;;3378859;42;20087;-67
2022/10/05 12:28:42;;;;;;;8.87;2.33;;;;;;;;;;3374577;42;20090;-65
2022/10/05 12:31:38;;;;;;;8.57;2.35;;;;;;;;;;3372696;42;20176;-64
2022/10/05 12:34:12;;;;;;;11.10;2.70;;;;;;;;;;3381390;42;20090;-64
2022/10/05 12:36:49;;;;;;;15.18;2.38;;;;;;;;;;3377405;42;20094;-68
2022/10/05 12:39:34;;;;;;;13.82;2.40;;;;;;;;;;3381186;42;20094;-64
2022/10/05 12:42:11;;;;;;;13.13;2.47;;;;;;;;;;3381889;42;20114;-65
2022/10/05 12:44:51;;;;;;;11.68;2.10;;;;;;;;;;3380863;42;20105;-65
2022/10/05 12:47:40;;;;;;;14.43;2.45;;;;;;;;;;3383364;42;20477;-64
2022/10/05 12:50:30;;;;;;;13.68;2.65;;;;;;;;;;3374539;42;20165;-67
2022/10/05 12:53:23;;;;;;;10.90;2.22;;;;;;;;;;3372163;42;20089;-66
2022/10/05 12:56:07;;;;;;;16.13;3.47;;;;;;;;;;3381892;42;20083;-68
2022/10/05 12:59:14;;;;;;;12.80;3.30;;;;;;;;;;3375383;42;20105;-64
2022/10/05 13:02:07;;;;;;;11.70;2.55;;;;;;;;;;3374780;42;20223;-65
2022/10/05 13:04:39;;;;;;;13.32;2.78;;;;;;;;;;3381263;42;20086;-65
2022/10/05 13:07:37;;;;;;;12.00;2.70;;;;;;;;;;3382351;42;20098;-65
2022/10/05 13:10:17;;;;;;;11.43;2.03;;;;;;;;;;3367673;42;20094;-64
2022/10/05 13:13:10;;;;;;;14.10;2.85;;;;;;;;;;3382351;42;20079;-65
2022/10/05 13:15:45;;;;;;;12.27;2.35;;;;;;;;;;3384884;42;20102;-64
2022/10/05 13:18:35;;;;;;;10.85;2.50;;;;;;;;;;3383213;42;20095;-64
2022/10/05 13:21:38;;;;;;;11.82;2.72;;;;;;;;;;3380055;42;20508;-63
2022/10/05 13:24:43;;;;;;;10.20;2.43;;;;;;;;;;3380417;42;20097;-66
2022/10/05 13:27:21;;;;;;;12.50;2.40;;;;;;;;;;3375045;42;20093;-66
2022/10/05 13:30:12;;;;;;;13.05;2.45;;;;;;;;;;3375310;42;20714;-65
2022/10/05 13:32:44;;;;;;;11.80;2.55;;;;;;;;;;3381115;42;20150;-65
2022/10/05 13:35:37;;;;;;;13.95;3.42;;;;;;;;;;3383105;42;20164;-66
2022/10/05 13:38:26;;;;;;;16.77;3.30;;;;;;;;;;3381407;42;20171;-65
2022/10/05 13:41:16;;;;;;;11.50;2.80;;;;;;;;;;3389017;42;20087;-66
2022/10/05 13:43:56;;;;;;;14.23;2.90;;;;;;;;;;3381575;42;20099;-66
2022/10/05 13:46:52;;;;;;;15.45;2.92;;;;;;;;;;3372587;42;21079;-66
2022/10/05 13:50:01;;;;;;;16.60;3.15;;;;;;;;;;3380410;42;20090;-66
2022/10/05 13:53:09;;;;;;;12.00;2.47;;;;;;;;;;3354125;42;20088;-66
2022/10/05 13:55:50;;;;;;;13.23;2.90;;;;;;;;;;3353392;42;20155;-64
2022/10/05 13:58:43;;;;;;;13.93;2.80;;;;;;;;;;3379907;42;20094;-66
2022/10/05 14:01:15;;;;;;;11.35;2.47;;;;;;;;;;3374677;42;20083;-65
2022/10/05 14:04:23;;;;;;;14.00;2.97;;;;;;;;;;3382336;42;20186;-63
2022/10/05 14:06:55;;;;;;;13.83;2.60;;;;;;;;;;3375228;42;20169;-67
2022/10/05 14:09:30;;;;;;;20.88;2.83;;;;;;;;;;3378445;42;20087;-65
2022/10/05 14:12:01;;;;;;;9.68;2.38;;;;;;;;;;3373771;42;20087;-67
2022/10/05 14:14:59;;;;;;;13.48;2.80;;;;;;;;;;3380411;42;20158;-65
2022/10/05 14:17:39;;;;;;;19.35;3.03;;;;;;;;;;3366274;42;20093;-65
2022/10/05 14:20:25;;;;;;;19.13;2.70;;;;;;;;;;3381687;42;20095;-65
2022/10/05 14:23:00;;;;;;;13.95;2.83;;;;;;;;;;3382244;42;20105;-65
2022/10/05 14:25:33;;;;;;;16.25;3.15;;;;;;;;;;3374871;42;20134;-65
2022/10/05 14:28:10;;;;;;;9.75;2.33;;;;;;;;;;3360793;42;20204;-64
2022/10/05 14:30:41;;;;;;;15.88;2.60;;;;;;;;;;3382051;42;20616;-64
2022/10/05 14:33:15;;;;;;;13.10;2.70;;;;;;;;;;3368724;42;20176;-64
2022/10/05 14:35:48;;;;;;;11.40;2.92;;;;;;;;;;3375767;42;20601;-65
2022/10/05 14:38:50;;;;;;;15.52;2.92;;;;;;;;;;3377756;42;20101;-63
2022/10/05 14:41:26;;;;;;;14.38;2.75;;;;;;;;;;3383343;42;20086;-65
2022/10/05 14:44:02;;;;;;;8.85;2.38;;;;;;;;;;3377048;42;20869;-65
2022/10/05 14:46:34;;;;;;;10.40;2.37;;;;;;;;;;3383998;42;20517;-68
2022/10/05 14:49:24;;;;;;;19.00;2.88;;;;;;;;;;3384159;42;20105;-65
2022/10/05 14:51:55;;;;;;;16.48;2.83;;;;;;;;;;3383665;42;20091;-64
2022/10/05 14:54:35;;;;;;;10.68;2.30;;;;;;;;;;3383735;42;20096;-65
2022/10/05 14:57:19;;;;;;;16.83;3.20;;;;;;;;;;3383010;42;20109;-65
2022/10/05 15:00:17;;;;;;;16.97;4.30;;;;;;;;;;3385088;42;20612;-66
2022/10/05 15:03:16;;;;;;;14.27;3.05;;;;;;;;;;3381444;42;20115;-65
2022/10/05 15:05:49;;;;;;;14.30;2.90;;;;;;;;;;3380819;42;20161;-65
2022/10/05 15:08:51;;;;;;;14.45;3.13;;;;;;;;;;3374611;42;20564;-65
2022/10/05 15:11:41;;;;;;;18.40;2.83;;;;;;;;;;3382780;42;20106;-67
2022/10/05 15:14:23;;;;;;;21.43;3.50;;;;;;;;;;3381647;42;20095;-67
2022/10/05 15:17:03;;;;;;;11.57;2.85;;;;;;;;;;3368534;42;20085;-65
2022/10/05 15:19:54;;;;;;;14.20;2.83;;;;;;;;;;3376550;42;20558;-66
2022/10/05 15:22:40;;;;;;;10.75;2.65;;;;;;;;;;3383260;42;20130;-63
2022/10/05 15:25:16;;;;;;;13.40;2.65;;;;;;;;;;3377125;42;20492;-64
2022/10/05 15:28:15;;;;;;;8.80;2.30;;;;;;;;;;3381641;42;20095;-63
2022/10/05 15:30:58;;;;;;;10.63;2.30;;;;;;;;;;3376864;42;20103;-64
2022/10/05 15:33:35;;;;;;;13.27;3.15;;;;;;;;;;3376748;42;20099;-67
2022/10/05 15:36:18;;;;;;;11.20;2.63;;;;;;;;;;3376689;42;20609;-65
2022/10/05 15:39:12;;;;;;;12.65;2.50;;;;;;;;;;3376283;42;20106;-67
2022/10/05 15:42:09;;;;;;;14.23;3.30;;;;;;;;;;3376325;42;20169;-69
2022/10/05 15:44:47;;;;;;;14.00;2.92;;;;;;;;;;3381304;42;20097;-68
2022/10/05 15:47:26;;;;;;;14.38;2.78;;;;;;;;;;3376442;42;20172;-64
2022/10/05 15:50:05;;;;;;;12.18;2.55;;;;;;;;;;3377417;42;20083;-65
2022/10/05 15:52:47;;;;;;;11.25;2.72;;;;;;;;;;3372680;42;20146;-67
2022/10/05 15:55:36;;;;;;;10.63;2.57;;;;;;;;;;3382420;42;20616;-66
2022/10/05 15:58:27;;;;;;;11.65;2.47;;;;;;;;;;3384729;42;20141;-66
2022/10/05 16:01:24;;;;;;;14.40;3.15;;;;;;;;;;3377851;42;20091;-66
2022/10/05 16:04:10;;;;;;;12.27;2.97;;;;;;;;;;3373737;42;20103;-66
2022/10/05 16:10:17;;;;;;;13.10;2.73;;;;;;;;;;3385195;42;20094;-65
2022/10/05 16:12:51;;;;;;;13.18;2.80;;;;;;;;;;3379127;42;20097;-65
2022/10/05 16:15:40;;;;;;;11.82;2.60;;;;;;;;;;3384169;42;20134;-65
2022/10/05 16:18:31;;;;;;;11.82;3.00;;;;;;;;;;3382773;42;20161;-65
2022/10/05 16:21:12;;;;;;;14.40;3.40;;;;;;;;;;3377992;42;20091;-67
2022/10/05 16:24:05;;;;;;;12.13;2.57;;;;;;;;;;3374188;42;20146;-64
2022/10/05 16:26:55;;;;;;;12.80;3.38;;;;;;;;;;3376111;42;20078;-67
2022/10/05 16:29:44;;;;;;;12.82;2.58;;;;;;;;;;3364250;42;20122;-67
2022/10/05 16:32:25;;;;;;;10.63;2.92;;;;;;;;;;3376309;42;20095;-66
2022/10/05 16:35:19;;;;;;;23.25;3.33;;;;;;;;;;3375793;42;20083;-66
2022/10/05 16:38:10;;;;;;;14.80;3.40;;;;;;;;;;3378960;42;20095;-65